Weather History for Pickens County Airport, SC

Change the Weather History Date:

Tuesday, March 11, 2014

  Actual Average Record
Temperature  
Mean Temperature 57 °F -  
Max Temperature 78 °F 64 °F 78 °F (2014)
Min Temperature 36 °F 39 °F 36 °F (2014)
Degree Days  
Heating Degree Days 8    
Growing Degree Days 7 (Base 50)    
Moisture  
Dew Point 42 °F    
Average Humidity 55    
Maximum Humidity 100    
Minimum Humidity 27    
Precipitation  
Precipitation 0.00 in - - ()
Sea Level Pressure  
Sea Level Pressure 29.78 in    
Wind  
Wind Speed - (North)    
Max Wind Speed -    
Max Gust Speed -    
Visibility 10 miles    
Events      
Averages and records for this station are not official NWS values.
T = Trace of Precipitation, MM = Missing Value Source: NWS Daily Summary

Daily Weather History Graph

Daily Weather History Graph

Search for Another Location

Airport:

Trip Planner

Search our weather history database for the weather conditions in past years. The results will help you decide how hot, cold, wet, or windy it might be!

Date:

Astronomy

Mar. 11, 2014 Rise Set
Actual Time 7:46 AM EDT 7:35 PM EDT
Civil Twilight 7:21 AM EDT 8:00 PM EDT
Nautical Twilight 6:52 AM EDT 8:29 PM EDT
Astronomical Twilight 6:23 AM EDT 8:59 PM EDT
Moon 3:18 PM EDT (3/11) 4:31 AM EDT (3/11)
Length of Visible Light 12h 38m
Length of Day
11h 48m
Waxing Gibbous, 78% of the Moon is Illuminated
Mar 11
Waxing Gibbous
Mar 16
Full
Mar 23
Last Quarter
Mar 30
New
Apr 7
First Quarter

Hourly Weather History & Observations

Time (EDT) Temp. Dew Point Humidity Pressure Visibility Wind Dir Wind Speed Gust Speed Precip Events Conditions
12:15 AM 54.7 °F 40.8 °F 60% 29.89 in 10.0 mi North - - N/A   Clear
12:35 AM 55.2 °F 40.8 °F 58% 29.88 in 10.0 mi North - - N/A   Clear
12:55 AM 54.7 °F 40.6 °F 59% 29.87 in 10.0 mi North - - N/A   Clear
1:15 AM 54.3 °F 41.0 °F 61% 29.87 in 10.0 mi North - - N/A   Clear
1:35 AM 53.6 °F 41.2 °F 63% 29.87 in 10.0 mi North - - N/A   Clear
1:55 AM 53.4 °F 41.5 °F 64% 29.86 in 10.0 mi North - - N/A   Clear
2:15 AM 52.5 °F 41.9 °F 67% 29.87 in 10.0 mi North - - N/A   Clear
2:35 AM 52.0 °F 41.7 °F 68% 29.86 in 10.0 mi North - - N/A   Clear
2:55 AM 52.3 °F 42.1 °F 68% 29.86 in 10.0 mi North - - N/A   Clear
3:15 AM 51.4 °F 41.9 °F 70% 29.85 in 10.0 mi North - - N/A   Clear
3:35 AM 50.7 °F 41.7 °F 71% 29.84 in 10.0 mi North - - N/A   Clear
3:55 AM 52.3 °F 41.7 °F 67% 29.83 in 10.0 mi North - - N/A   Clear
4:15 AM 48.6 °F 40.5 °F 74% 29.82 in 10.0 mi North - - N/A   Clear
4:35 AM 44.1 °F 40.3 °F 87% 29.81 in 10.0 mi North - - N/A   Clear
4:55 AM 43.9 °F 40.6 °F 88% 29.81 in 10.0 mi North - - N/A   Clear
5:15 AM 45.5 °F 40.6 °F 83% 29.82 in 10.0 mi North - - N/A   Clear
5:35 AM 46.0 °F 40.8 °F 82% 29.82 in 10.0 mi North - - N/A   Clear
5:55 AM 45.3 °F 40.6 °F 84% 29.82 in 10.0 mi North - - N/A   Clear
6:15 AM 44.1 °F 39.9 °F 85% 29.81 in 10.0 mi North - - N/A   Clear
6:35 AM 40.3 °F 39.2 °F 96% 29.82 in 10.0 mi North - - N/A   Clear
6:55 AM 38.7 °F 38.3 °F 99% 29.82 in 10.0 mi North - - N/A   Clear
7:15 AM 40.3 °F 39.4 °F 97% 29.82 in 10.0 mi North - - N/A   Clear
7:35 AM 38.5 °F 37.8 °F 97% 29.82 in 10.0 mi North - - N/A   Clear
7:55 AM 37.2 °F 37.0 °F 99% 29.82 in 10.0 mi North - - N/A   Clear
8:15 AM 36.9 °F 36.9 °F 100% 29.82 in 10.0 mi North - - N/A   Clear
8:35 AM 38.3 °F 38.1 °F 99% 29.81 in 10.0 mi North - - N/A   Clear
8:55 AM 39.2 °F 38.8 °F 99% 29.82 in 10.0 mi North - - N/A   Clear
9:15 AM 43.3 °F 42.3 °F 96% 29.83 in 10.0 mi North - - N/A   Clear
9:35 AM 47.7 °F 43.7 °F 86% 29.83 in 10.0 mi North - - N/A   Clear
9:55 AM 52.2 °F 43.5 °F 72% 29.84 in 10.0 mi North - - N/A   Clear
10:15 AM 56.5 °F 43.0 °F 61% 29.84 in 10.0 mi North - - N/A   Clear
10:35 AM 60.3 °F 43.0 °F 53% 29.83 in 10.0 mi North - - N/A   Clear
10:55 AM 63.5 °F 42.6 °F 47% 29.83 in 10.0 mi North - - N/A   Clear
11:15 AM 65.5 °F 38.8 °F 38% 29.82 in 10.0 mi North - - N/A   Clear
11:35 AM 67.6 °F 38.5 °F 34% 29.82 in 10.0 mi North - - N/A   Clear
11:55 AM 69.3 °F 37.8 °F 32% 29.81 in 10.0 mi North - - N/A   Clear
12:15 PM 70.2 °F 39.2 °F 32% 29.81 in 10.0 mi North - - N/A   Clear
12:35 PM 71.2 °F 40.8 °F 33% 29.80 in 10.0 mi North - - N/A   Clear
12:55 PM 72.7 °F 39.6 °F 30% 29.79 in 10.0 mi North - - N/A   Clear
1:15 PM 73.9 °F 38.7 °F 28% 29.79 in 10.0 mi North - - N/A   Clear
1:35 PM 74.8 °F 39.4 °F 28% 29.78 in 10.0 mi North - - N/A   Clear
1:55 PM 75.6 °F 40.6 °F 28% 29.78 in 10.0 mi North - - N/A   Clear
2:15 PM 76.5 °F 40.5 °F 27% 29.76 in 10.0 mi North - - N/A   Clear
2:35 PM 77.2 °F 42.3 °F 29% 29.76 in 10.0 mi North - - N/A   Clear
2:55 PM 76.1 °F 42.6 °F 30% 29.75 in 10.0 mi North - - N/A   Clear
3:15 PM 77.4 °F 43.2 °F 30% 29.74 in 10.0 mi North - - N/A   Clear
3:35 PM 77.5 °F 42.8 °F 29% 29.73 in 10.0 mi North - - N/A   Clear
3:55 PM 78.1 °F 42.8 °F 28% 29.73 in 10.0 mi North - - N/A   Clear
4:15 PM 78.4 °F 43.3 °F 29% 29.72 in 10.0 mi North - - N/A   Clear
4:35 PM 78.4 °F 43.5 °F 29% 29.72 in 10.0 mi North - - N/A   Clear
4:55 PM 78.4 °F 43.7 °F 29% 29.71 in 10.0 mi North - - N/A   Clear
5:15 PM 77.9 °F 43.5 °F 29% 29.71 in 10.0 mi North - - N/A   Clear
5:35 PM 77.7 °F 43.7 °F 30% 29.70 in 10.0 mi North - - N/A   Clear
5:55 PM 77.4 °F 43.7 °F 30% 29.70 in 10.0 mi North - - N/A   Clear
6:15 PM 77.0 °F 43.2 °F 30% 29.70 in 10.0 mi North - - N/A   Clear
6:35 PM 76.5 °F 43.5 °F 31% 29.69 in 10.0 mi North - - N/A   Clear
6:55 PM 75.2 °F 43.9 °F 33% 29.70 in 10.0 mi North - - N/A   Clear
7:15 PM 73.8 °F 43.9 °F 34% 29.70 in 10.0 mi North - - N/A   Clear
7:35 PM 72.1 °F 44.1 °F 36% 29.71 in 10.0 mi North - - N/A   Clear
7:55 PM 71.4 °F 44.6 °F 38% 29.72 in 10.0 mi North - - N/A   Clear
8:15 PM 70.5 °F 45.0 °F 40% 29.72 in 10.0 mi North - - N/A   Clear
8:35 PM 70.0 °F 45.3 °F 41% 29.72 in 10.0 mi North - - N/A   Clear
8:55 PM 69.1 °F 45.7 °F 43% 29.72 in 10.0 mi North - - N/A   Clear
9:15 PM 68.4 °F 46.0 °F 45% 29.73 in 10.0 mi North - - N/A   Clear
9:35 PM 67.6 °F 46.4 °F 46% 29.73 in 10.0 mi North - - N/A   Clear
9:55 PM 66.7 °F 46.6 °F 48% 29.73 in 10.0 mi North - - N/A   Scattered Clouds
10:15 PM 66.6 °F 47.1 °F 50% 29.74 in 10.0 mi North - - N/A   Scattered Clouds
10:35 PM 66.2 °F 47.3 °F 51% 29.74 in 10.0 mi North - - N/A   Scattered Clouds
10:55 PM 65.7 °F 46.8 °F 50% 29.74 in 10.0 mi North - - N/A   Scattered Clouds
11:15 PM 64.9 °F 47.1 °F 52% 29.73 in 10.0 mi North - - N/A   Clear
11:35 PM 64.4 °F 47.5 °F 54% 29.73 in 10.0 mi North - - N/A   Clear
11:55 PM 64.8 °F 47.8 °F 54% 29.72 in 10.0 mi North - - N/A   Scattered Clouds